sensor_id;sensor_type;location;lat;lon;timestamp;P1;durP1;ratioP1;P2;durP2;ratioP2
40248;SDS011;25969;49.970;11.062;2023-12-20T05:06:25;0.97;;;0.70;;
40248;SDS011;25969;49.970;11.062;2023-12-20T05:16:26;1.40;;;1.00;;
40248;SDS011;25969;49.970;11.062;2023-12-20T05:26:27;4.23;;;1.20;;
40248;SDS011;25969;49.970;11.062;2023-12-20T05:36:29;2.23;;;1.37;;
40248;SDS011;25969;49.970;11.062;2023-12-20T05:46:30;3.80;;;1.90;;
40248;SDS011;25969;49.970;11.062;2023-12-20T05:56:31;2.03;;;1.80;;
40248;SDS011;25969;49.970;11.062;2023-12-20T06:06:32;8.77;;;5.97;;
40248;SDS011;25969;49.970;11.062;2023-12-20T06:16:32;3.00;;;2.13;;
40248;SDS011;25969;49.970;11.062;2023-12-20T06:26:33;4.37;;;3.30;;
40248;SDS011;25969;49.970;11.062;2023-12-20T06:36:34;4.27;;;3.13;;
40248;SDS011;25969;49.970;11.062;2023-12-20T06:46:35;4.17;;;2.47;;
40248;SDS011;25969;49.970;11.062;2023-12-20T06:56:36;4.33;;;2.90;;
40248;SDS011;25969;49.970;11.062;2023-12-20T07:06:37;5.10;;;3.33;;
40248;SDS011;25969;49.970;11.062;2023-12-20T07:16:37;5.13;;;3.20;;
40248;SDS011;25969;49.970;11.062;2023-12-20T07:26:38;5.37;;;3.50;;
40248;SDS011;25969;49.970;11.062;2023-12-20T07:36:39;4.53;;;3.10;;
40248;SDS011;25969;49.970;11.062;2023-12-20T07:46:40;5.70;;;3.20;;
40248;SDS011;25969;49.970;11.062;2023-12-20T07:56:41;8.87;;;4.47;;
40248;SDS011;25969;49.970;11.062;2023-12-20T08:06:41;7.47;;;4.30;;
40248;SDS011;25969;49.970;11.062;2023-12-20T08:16:42;8.23;;;4.87;;
40248;SDS011;25969;49.970;11.062;2023-12-20T08:26:43;7.43;;;4.23;;
40248;SDS011;25969;49.970;11.062;2023-12-20T08:36:44;9.23;;;3.97;;
40248;SDS011;25969;49.970;11.062;2023-12-20T08:46:44;4.50;;;2.90;;
40248;SDS011;25969;49.970;11.062;2023-12-20T08:56:45;4.27;;;2.80;;
40248;SDS011;25969;49.970;11.062;2023-12-20T09:06:46;5.07;;;2.93;;
40248;SDS011;25969;49.970;11.062;2023-12-20T09:16:47;3.30;;;2.40;;
40248;SDS011;25969;49.970;11.062;2023-12-20T09:26:47;3.23;;;1.93;;
40248;SDS011;25969;49.970;11.062;2023-12-20T09:36:48;7.90;;;2.50;;
40248;SDS011;25969;49.970;11.062;2023-12-20T09:46:49;6.80;;;2.67;;
40248;SDS011;25969;49.970;11.062;2023-12-20T09:56:51;5.80;;;2.27;;
40248;SDS011;25969;49.970;11.062;2023-12-20T10:06:52;7.37;;;2.50;;
40248;SDS011;25969;49.970;11.062;2023-12-20T10:16:52;8.57;;;3.00;;
40248;SDS011;25969;49.970;11.062;2023-12-20T10:27:07;8.45;;;1.88;;
40248;SDS011;25969;49.970;11.062;2023-12-20T10:37:08;5.93;;;2.40;;
40248;SDS011;25969;49.970;11.062;2023-12-20T10:47:09;5.37;;;1.50;;
40248;SDS011;25969;49.970;11.062;2023-12-20T10:57:13;1.67;;;1.00;;
40248;SDS011;25969;49.970;11.062;2023-12-20T11:07:34;6.47;;;1.30;;
40248;SDS011;25969;49.970;11.062;2023-12-20T11:17:38;9.50;;;1.53;;
40248;SDS011;25969;49.970;11.062;2023-12-20T11:27:41;4.83;;;1.30;;
40248;SDS011;25969;49.970;11.062;2023-12-20T11:37:45;7.00;;;1.37;;
40248;SDS011;25969;49.970;11.062;2023-12-20T11:47:50;3.17;;;0.97;;
40248;SDS011;25969;49.970;11.062;2023-12-20T12:07:52;4.33;;;0.90;;
40248;SDS011;25969;49.970;11.062;2023-12-20T12:17:54;7.23;;;1.47;;
40248;SDS011;25969;49.970;11.062;2023-12-20T12:27:56;5.67;;;1.23;;
40248;SDS011;25969;49.970;11.062;2023-12-20T12:37:58;3.57;;;1.20;;
40248;SDS011;25969;49.970;11.062;2023-12-20T12:48:00;5.53;;;0.87;;
40248;SDS011;25969;49.970;11.062;2023-12-20T12:58:01;4.57;;;0.73;;
40248;SDS011;25969;49.970;11.062;2023-12-20T13:08:02;5.37;;;1.53;;
40248;SDS011;25969;49.970;11.062;2023-12-20T13:18:03;7.40;;;1.03;;
40248;SDS011;25969;49.970;11.062;2023-12-20T13:28:05;6.47;;;1.20;;
40248;SDS011;25969;49.970;11.062;2023-12-20T13:38:06;3.37;;;0.73;;
40248;SDS011;25969;49.970;11.062;2023-12-20T13:48:08;3.70;;;1.08;;
40248;SDS011;25969;49.970;11.062;2023-12-20T13:58:08;7.00;;;1.60;;
40248;SDS011;25969;49.970;11.062;2023-12-20T14:08:12;8.67;;;2.40;;
40248;SDS011;25969;49.970;11.062;2023-12-20T14:18:13;5.80;;;1.73;;
40248;SDS011;25969;49.970;11.062;2023-12-20T14:38:15;9.03;;;1.40;;
40248;SDS011;25969;49.970;11.062;2023-12-20T14:48:16;6.23;;;1.53;;
40248;SDS011;25969;49.970;11.062;2023-12-20T14:58:18;4.88;;;1.38;;
40248;SDS011;25969;49.970;11.062;2023-12-20T15:08:18;8.47;;;1.67;;
40248;SDS011;25969;49.970;11.062;2023-12-20T15:18:19;7.23;;;2.50;;
40248;SDS011;25969;49.970;11.062;2023-12-20T15:28:20;7.70;;;1.33;;
40248;SDS011;25969;49.970;11.062;2023-12-20T15:38:21;3.23;;;1.00;;
40248;SDS011;25969;49.970;11.062;2023-12-20T15:48:21;6.33;;;1.53;;
40248;SDS011;25969;49.970;11.062;2023-12-20T15:58:29;4.43;;;1.47;;
40248;SDS011;25969;49.970;11.062;2023-12-20T16:08:30;6.63;;;1.50;;
40248;SDS011;25969;49.970;11.062;2023-12-20T16:18:31;7.40;;;1.90;;
40248;SDS011;25969;49.970;11.062;2023-12-20T16:28:32;7.03;;;1.87;;
40248;SDS011;25969;49.970;11.062;2023-12-20T16:38:33;11.57;;;3.07;;
40248;SDS011;25969;49.970;11.062;2023-12-20T16:48:34;9.30;;;2.77;;
40248;SDS011;25969;49.970;11.062;2023-12-20T16:58:34;11.57;;;3.50;;
40248;SDS011;25969;49.970;11.062;2023-12-20T17:08:35;6.60;;;2.10;;
40248;SDS011;25969;49.970;11.062;2023-12-20T17:18:36;9.77;;;2.67;;
40248;SDS011;25969;49.970;11.062;2023-12-20T17:28:38;9.67;;;2.40;;
40248;SDS011;25969;49.970;11.062;2023-12-20T17:38:40;8.83;;;3.33;;
40248;SDS011;25969;49.970;11.062;2023-12-20T17:48:40;12.50;;;2.97;;
40248;SDS011;25969;49.970;11.062;2023-12-20T17:58:41;9.23;;;2.73;;
40248;SDS011;25969;49.970;11.062;2023-12-20T18:08:42;10.20;;;2.38;;
40248;SDS011;25969;49.970;11.062;2023-12-20T18:18:43;3.50;;;1.70;;
40248;SDS011;25969;49.970;11.062;2023-12-20T18:28:44;10.33;;;2.47;;
40248;SDS011;25969;49.970;11.062;2023-12-20T18:38:45;11.63;;;2.63;;
40248;SDS011;25969;49.970;11.062;2023-12-20T18:48:46;3.97;;;1.63;;
40248;SDS011;25969;49.970;11.062;2023-12-20T18:58:47;5.13;;;1.80;;
40248;SDS011;25969;49.970;11.062;2023-12-20T19:08:48;7.03;;;2.03;;
40248;SDS011;25969;49.970;11.062;2023-12-20T19:18:50;5.03;;;2.13;;
40248;SDS011;25969;49.970;11.062;2023-12-20T19:28:51;5.03;;;2.00;;
40248;SDS011;25969;49.970;11.062;2023-12-20T19:38:52;9.33;;;2.67;;
40248;SDS011;25969;49.970;11.062;2023-12-20T19:48:53;8.20;;;2.97;;
40248;SDS011;25969;49.970;11.062;2023-12-20T19:58:54;13.63;;;3.03;;
40248;SDS011;25969;49.970;11.062;2023-12-20T20:08:55;5.85;;;2.70;;
40248;SDS011;25969;49.970;11.062;2023-12-20T20:18:56;5.00;;;2.37;;
40248;SDS011;25969;49.970;11.062;2023-12-20T20:28:57;4.57;;;2.37;;
40248;SDS011;25969;49.970;11.062;2023-12-20T20:38:58;7.70;;;2.43;;
40248;SDS011;25969;49.970;11.062;2023-12-20T20:49:00;5.47;;;2.37;;
40248;SDS011;25969;49.970;11.062;2023-12-20T20:59:01;6.40;;;2.70;;
40248;SDS011;25969;49.970;11.062;2023-12-20T21:09:02;7.37;;;3.73;;
40248;SDS011;25969;49.970;11.062;2023-12-20T21:19:05;6.23;;;2.60;;
40248;SDS011;25969;49.970;11.062;2023-12-20T21:29:05;14.13;;;3.50;;
40248;SDS011;25969;49.970;11.062;2023-12-20T21:39:08;3.73;;;2.30;;
40248;SDS011;25969;49.970;11.062;2023-12-20T21:49:09;7.10;;;3.10;;
40248;SDS011;25969;49.970;11.062;2023-12-20T21:59:10;8.33;;;3.77;;
40248;SDS011;25969;49.970;11.062;2023-12-20T22:09:11;15.33;;;5.73;;
40248;SDS011;25969;49.970;11.062;2023-12-20T22:19:12;11.27;;;3.50;;
40248;SDS011;25969;49.970;11.062;2023-12-20T22:29:13;12.23;;;3.97;;
40248;SDS011;25969;49.970;11.062;2023-12-20T22:39:13;8.47;;;3.83;;
40248;SDS011;25969;49.970;11.062;2023-12-20T22:49:14;15.53;;;4.47;;
